Time;durP1;ratioP1;P1;durP2;ratioP2;P2;SDS_P1;SDS_P2;PMS_P1;PMS_P2;Temp;Humidity;BMP_temperature;BMP_pressure;BME280_temperature;BME280_humidity;BME280_pressure;Samples;Min_cycle;Max_cycle;Signal;HPM_P1;HPM_P2
2021/04/30 00:00:28;;;;;;;6.70;5.93;;;9.10;98.80;;;;;;5094052;28;20207;-66
2021/04/30 00:02:55;;;;;;;6.43;5.57;;;9.10;98.70;;;;;;5093446;28;20732;-66
2021/04/30 00:05:21;;;;;;;6.33;5.43;;;9.20;98.60;;;;;;5093324;28;20208;-65
2021/04/30 00:07:48;;;;;;;7.40;4.93;;;9.30;98.60;;;;;;5093318;28;20228;-65
2021/04/30 00:10:14;;;;;;;5.83;4.80;;;9.30;98.50;;;;;;5093720;28;20266;-65
2021/04/30 00:12:40;;;;;;;5.93;5.10;;;9.50;98.30;;;;;;5093502;28;20211;-65
2021/04/30 00:15:07;;;;;;;5.20;4.70;;;9.60;98.30;;;;;;5093522;28;20486;-66
2021/04/30 00:17:34;;;;;;;4.90;4.40;;;9.60;97.90;;;;;;5093215;28;20236;-65
2021/04/30 00:20:00;;;;;;;5.13;4.53;;;9.70;97.80;;;;;;5092467;28;20211;-65
2021/04/30 00:22:26;;;;;;;4.90;4.40;;;9.70;97.60;;;;;;5093489;28;20272;-65
2021/04/30 00:24:53;;;;;;;4.80;4.30;;;9.80;97.50;;;;;;5093379;28;20229;-65
2021/04/30 00:27:19;;;;;;;6.40;4.57;;;9.80;97.30;;;;;;5093341;28;20248;-65
2021/04/30 00:29:45;;;;;;;5.27;4.00;;;9.90;97.30;;;;;;5092867;28;20213;-66
2021/04/30 00:32:12;;;;;;;5.97;4.57;;;10.00;96.70;;;;;;5093215;28;20211;-66
2021/04/30 00:34:39;;;;;;;6.30;4.80;;;10.00;96.60;;;;;;5092834;28;20208;-66
2021/04/30 00:37:06;;;;;;;5.90;4.77;;;10.00;96.40;;;;;;5092747;28;20201;-66
2021/04/30 00:39:32;;;;;;;5.67;4.57;;;9.90;97.00;;;;;;5093031;28;20208;-66
2021/04/30 00:41:59;;;;;;;7.17;5.37;;;9.90;97.00;;;;;;5093017;28;20200;-66
2021/04/30 00:44:25;;;;;;;7.17;5.20;;;9.90;97.20;;;;;;5092923;28;20204;-66
2021/04/30 00:46:51;;;;;;;6.10;4.47;;;9.80;97.30;;;;;;5093371;28;20204;-66
2021/04/30 00:49:18;;;;;;;5.13;4.57;;;9.90;97.30;;;;;;5092743;28;20224;-66
2021/04/30 00:51:44;;;;;;;5.63;4.30;;;9.90;97.30;;;;;;5092723;28;20204;-66
2021/04/30 00:54:10;;;;;;;4.07;3.63;;;9.90;97.20;;;;;;5092772;28;20200;-67
2021/04/30 00:56:36;;;;;;;6.43;4.20;;;9.90;97.20;;;;;;5092928;28;20204;-67
2021/04/30 00:59:04;;;;;;;5.10;4.60;;;9.90;97.10;;;;;;5092432;28;20220;-66
2021/04/30 01:01:30;;;;;;;4.87;4.30;;;9.90;97.20;;;;;;5092543;28;20204;-66
2021/04/30 01:03:56;;;;;;;4.93;4.43;;;9.90;97.30;;;;;;5092188;28;20228;-66
2021/04/30 01:06:23;;;;;;;5.57;4.23;;;9.90;97.30;;;;;;5092287;28;20261;-65
2021/04/30 01:08:49;;;;;;;4.70;3.87;;;9.90;97.40;;;;;;5092483;28;20224;-66
2021/04/30 01:11:16;;;;;;;5.57;4.40;;;9.90;97.30;;;;;;5092551;28;20251;-66
2021/04/30 01:13:42;;;;;;;6.53;4.50;;;9.90;97.30;;;;;;5092076;28;20732;-66
2021/04/30 01:16:09;;;;;;;5.93;4.50;;;9.90;97.30;;;;;;5092313;28;20211;-66
2021/04/30 01:18:42;;;;;;;6.13;4.60;;;9.80;97.50;;;;;;5091938;28;20239;-65
2021/04/30 01:21:10;;;;;;;7.97;4.87;;;9.80;97.60;;;;;;5092509;28;20208;-66
2021/04/30 01:23:46;;;;;;;4.60;4.20;;;9.80;97.70;;;;;;5091997;28;20224;-66
2021/04/30 01:26:12;;;;;;;7.40;4.83;;;9.80;97.70;;;;;;5092597;28;20207;-66
2021/04/30 01:28:38;;;;;;;4.80;4.30;;;9.70;97.80;;;;;;5092269;28;20228;-65
2021/04/30 01:31:04;;;;;;;4.90;4.50;;;9.60;97.80;;;;;;5091775;28;20204;-65
2021/04/30 01:33:30;;;;;;;5.77;4.57;;;9.50;97.90;;;;;;5090880;28;20208;-66
2021/04/30 01:35:57;;;;;;;5.00;4.50;;;9.50;98.10;;;;;;5091962;28;20209;-66
2021/04/30 01:38:23;;;;;;;5.10;4.60;;;9.50;98.30;;;;;;5092044;28;20587;-66
2021/04/30 01:40:50;;;;;;;5.33;4.60;;;9.50;98.30;;;;;;5091954;28;20584;-66
2021/04/30 01:43:17;;;;;;;4.90;4.40;;;9.60;98.50;;;;;;5091703;28;20228;-66
2021/04/30 01:45:51;;;;;;;6.67;4.87;;;9.60;98.30;;;;;;5091655;28;20200;-66
2021/04/30 01:48:18;;;;;;;6.17;4.40;;;9.60;98.40;;;;;;5091802;28;20228;-66
2021/04/30 01:50:45;;;;;;;4.87;4.37;;;9.60;98.30;;;;;;5091631;28;20207;-67
2021/04/30 01:53:12;;;;;;;5.50;4.53;;;9.60;98.10;;;;;;5091802;28;20200;-66
2021/04/30 01:55:39;;;;;;;6.33;4.80;;;9.60;98.10;;;;;;5091132;28;20698;-66
2021/04/30 01:58:06;;;;;;;5.40;4.37;;;9.70;98.00;;;;;;5091345;28;20220;-66
2021/04/30 02:00:33;;;;;;;5.17;4.53;;;9.70;97.70;;;;;;5091363;28;20270;-66
2021/04/30 02:03:00;;;;;;;4.90;4.47;;;9.70;97.50;;;;;;5091642;28;20228;-66
2021/04/30 02:05:29;;;;;;;5.67;4.60;;;9.70;97.50;;;;;;5091556;28;20211;-67
2021/04/30 02:07:58;;;;;;;5.37;4.50;;;9.70;98.00;;;;;;5091582;28;20228;-67
2021/04/30 02:10:25;;;;;;;5.10;4.40;;;9.50;98.30;;;;;;5091361;28;20200;-67
2021/04/30 02:12:53;;;;;;;6.33;4.57;;;9.40;98.50;;;;;;5091437;28;20204;-66
2021/04/30 02:15:23;;;;;;;6.17;4.40;;;9.30;98.70;;;;;;5091794;28;20207;-67
2021/04/30 02:17:49;;;;;;;8.77;5.07;;;9.30;98.80;;;;;;5091089;28;20235;-67
2021/04/30 02:20:17;;;;;;;5.67;5.07;;;9.40;98.90;;;;;;5091071;28;20740;-67
2021/04/30 02:22:44;;;;;;;6.23;4.50;;;9.40;98.80;;;;;;5091135;28;20220;-67
2021/04/30 02:25:13;;;;;;;10.90;6.70;;;9.50;98.80;;;;;;5090996;28;20208;-67
2021/04/30 02:27:40;;;;;;;5.30;4.30;;;9.60;98.70;;;;;;5091443;28;20227;-67
2021/04/30 02:30:08;;;;;;;5.77;4.33;;;9.70;98.40;;;;;;5091038;28;20230;-67
2021/04/30 02:32:36;;;;;;;8.30;4.80;;;9.80;98.20;;;;;;5090800;28;20222;-67
2021/04/30 02:35:05;;;;;;;6.40;4.87;;;9.90;98.00;;;;;;5091005;28;20296;-67
2021/04/30 02:37:31;;;;;;;5.07;4.57;;;9.90;98.00;;;;;;5090890;28;20232;-67
2021/04/30 02:39:57;;;;;;;5.53;4.00;;;10.00;97.30;;;;;;5090854;28;20235;-67
2021/04/30 02:42:23;;;;;;;5.20;4.70;;;10.00;97.30;;;;;;5090961;28;20224;-67
2021/04/30 02:44:50;;;;;;;5.70;4.73;;;10.10;97.50;;;;;;5094075;28;20211;-67
2021/04/30 02:47:16;;;;;;;5.17;4.67;;;10.20;97.60;;;;;;5094942;28;20589;-67
2021/04/30 02:49:44;;;;;;;5.53;4.80;;;10.20;97.60;;;;;;5095015;28;20204;-67
2021/04/30 02:52:14;;;;;;;5.63;4.77;;;10.20;97.60;;;;;;5094867;28;20200;-67
2021/04/30 02:54:40;;;;;;;6.03;4.83;;;10.30;97.40;;;;;;5094642;28;20671;-65
2021/04/30 02:57:07;;;;;;;7.90;5.60;;;10.20;97.20;;;;;;5095001;28;20211;-66
2021/04/30 02:59:33;;;;;;;5.80;5.30;;;10.30;97.00;;;;;;5095013;28;20204;-65
2021/04/30 03:02:01;;;;;;;6.27;5.67;;;10.20;96.30;;;;;;5094805;28;20215;-66
2021/04/30 03:04:28;;;;;;;17.20;11.60;;;10.20;96.10;;;;;;5094739;28;20230;-65
2021/04/30 03:06:55;;;;;;;13.27;10.30;;;10.20;95.80;;;;;;5094809;28;20215;-65
2021/04/30 03:09:21;;;;;;;6.40;5.80;;;10.20;95.70;;;;;;5094778;28;20224;-66
2021/04/30 03:11:47;;;;;;;9.87;7.80;;;10.10;95.60;;;;;;5094950;28;20215;-65
2021/04/30 03:14:13;;;;;;;7.17;6.47;;;10.00;95.30;;;;;;5094676;28;20200;-65
2021/04/30 03:16:40;;;;;;;8.23;6.90;;;9.90;95.60;;;;;;5094925;28;20208;-65
2021/04/30 03:19:06;;;;;;;6.83;6.13;;;9.90;95.40;;;;;;5115730;22;20235;-67
2021/04/30 03:21:32;;;;;;;7.97;6.70;;;9.90;95.00;;;;;;5095114;28;20303;-66
2021/04/30 03:23:59;;;;;;;7.60;6.60;;;9.80;95.10;;;;;;5095915;28;20738;-65
2021/04/30 03:26:25;;;;;;;6.40;5.80;;;9.90;95.20;;;;;;5096897;28;20207;-65
2021/04/30 03:28:52;;;;;;;7.23;6.20;;;9.90;95.40;;;;;;5082416;28;20232;-66
2021/04/30 03:31:18;;;;;;;8.03;6.77;;;9.90;95.50;;;;;;5075998;28;20205;-66
2021/04/30 03:33:44;;;;;;;9.90;7.50;;;10.00;95.30;;;;;;5075364;28;20204;-66
2021/04/30 03:36:10;;;;;;;7.10;6.40;;;10.00;95.30;;;;;;5075931;28;20209;-64
2021/04/30 03:38:37;;;;;;;7.37;5.83;;;10.00;95.50;;;;;;5076103;28;20274;-64
2021/04/30 03:41:04;;;;;;;9.47;7.60;;;10.00;95.70;;;;;;5075938;28;20250;-64
2021/04/30 03:43:30;;;;;;;8.60;6.13;;;10.00;95.70;;;;;;5076075;28;20278;-67
2021/04/30 03:45:58;;;;;;;7.33;6.03;;;10.10;95.90;;;;;;5075255;28;20266;-64
2021/04/30 03:48:25;;;;;;;9.77;7.17;;;10.10;95.90;;;;;;5074424;28;20255;-64
2021/04/30 03:50:51;;;;;;;10.23;7.33;;;10.10;95.90;;;;;;5074093;28;20266;-65
2021/04/30 03:53:18;;;;;;;11.97;7.37;;;10.00;95.70;;;;;;5074659;28;20235;-65
2021/04/30 03:55:44;;;;;;;9.27;7.27;;;10.00;95.60;;;;;;5072967;28;20225;-65
2021/04/30 03:58:11;;;;;;;10.83;9.40;;;10.10;95.50;;;;;;5074020;28;20297;-65
2021/04/30 04:00:37;;;;;;;8.07;6.47;;;10.10;95.50;;;;;;5073861;28;20200;-65
2021/04/30 04:03:04;;;;;;;9.00;7.43;;;10.10;95.70;;;;;;5074215;28;20225;-66
2021/04/30 04:05:30;;;;;;;10.90;8.53;;;10.10;95.80;;;;;;5074504;28;20205;-65
2021/04/30 04:07:56;;;;;;;9.10;7.77;;;10.00;96.30;;;;;;5075013;28;20228;-66
2021/04/30 04:10:22;;;;;;;7.23;5.97;;;10.00;96.50;;;;;;5075002;28;20209;-65
2021/04/30 04:12:48;;;;;;;6.50;5.90;;;9.90;97.00;;;;;;5073668;28;20672;-65
2021/04/30 04:15:16;;;;;;;10.97;7.87;;;9.90;97.20;;;;;;5073242;28;20407;-65
2021/04/30 04:17:43;;;;;;;15.47;11.00;;;9.80;97.30;;;;;;5073320;28;20240;-65
2021/04/30 04:20:11;;;;;;;7.10;6.40;;;9.80;97.50;;;;;;5073588;28;20248;-65
2021/04/30 04:22:37;;;;;;;7.93;6.77;;;9.80;97.60;;;;;;5074281;28;20228;-65
2021/04/30 04:25:05;;;;;;;6.23;5.63;;;9.80;97.90;;;;;;5073593;28;20668;-65
2021/04/30 04:27:31;;;;;;;8.43;6.20;;;9.80;98.20;;;;;;5073708;28;20227;-65
2021/04/30 04:29:58;;;;;;;6.87;6.17;;;9.80;98.60;;;;;;5073498;28;20254;-66
2021/04/30 04:32:25;;;;;;;7.37;6.67;;;9.70;99.00;;;;;;5073170;28;20664;-65
2021/04/30 04:34:51;;;;;;;7.40;6.20;;;9.70;99.10;;;;;;5073677;28;20208;-66
2021/04/30 04:37:17;;;;;;;22.80;16.13;;;9.70;99.20;;;;;;5073908;28;20200;-65
2021/04/30 04:39:43;;;;;;;17.30;12.27;;;9.80;99.30;;;;;;5073914;28;20209;-65
2021/04/30 04:42:10;;;;;;;10.37;7.80;;;9.90;99.20;;;;;;5074125;28;20212;-66
2021/04/30 04:44:36;;;;;;;7.77;6.60;;;10.00;98.30;;;;;;5073836;28;20232;-66
2021/04/30 04:47:03;;;;;;;13.67;10.40;;;10.00;97.60;;;;;;5074189;28;20216;-65
2021/04/30 04:49:30;;;;;;;7.90;7.10;;;10.10;97.10;;;;;;5073715;28;20251;-65
2021/04/30 04:51:57;;;;;;;7.63;6.93;;;10.10;96.70;;;;;;5074104;28;20205;-66
2021/04/30 04:54:24;;;;;;;7.70;6.13;;;10.00;96.30;;;;;;5073919;28;20200;-66
2021/04/30 04:56:50;;;;;;;7.53;6.80;;;9.80;97.60;;;;;;5074833;28;20209;-65
2021/04/30 04:59:16;;;;;;;12.03;9.57;;;9.80;98.00;;;;;;5074141;28;20727;-65
2021/04/30 05:01:42;;;;;;;8.87;7.87;;;9.80;97.90;;;;;;5073019;28;20209;-66
2021/04/30 05:04:09;;;;;;;9.70;8.37;;;9.80;97.70;;;;;;5072891;28;20232;-65
2021/04/30 05:06:36;;;;;;;10.33;7.17;;;9.90;97.20;;;;;;5072970;28;20209;-65
2021/04/30 05:09:02;;;;;;;7.40;6.67;;;9.90;97.00;;;;;;5072670;28;20225;-66
2021/04/30 05:11:28;;;;;;;9.73;7.93;;;10.00;96.40;;;;;;5072593;28;20299;-65
2021/04/30 05:13:54;;;;;;;9.63;8.53;;;10.00;96.20;;;;;;5071773;28;20256;-65
2021/04/30 05:16:21;;;;;;;7.73;6.57;;;10.10;95.80;;;;;;5072429;28;20227;-67
2021/04/30 05:18:47;;;;;;;8.43;7.33;;;10.10;96.00;;;;;;5072494;28;20236;-65
2021/04/30 05:21:13;;;;;;;13.77;9.13;;;10.10;96.20;;;;;;5072933;28;20232;-65
2021/04/30 05:23:40;;;;;;;8.70;7.80;;;10.30;96.20;;;;;;5072509;28;20236;-66
2021/04/30 05:26:07;;;;;;;9.33;8.33;;;10.40;96.10;;;;;;5072148;28;20664;-65
2021/04/30 05:28:33;;;;;;;9.73;7.13;;;10.50;96.00;;;;;;5072485;28;20232;-66
2021/04/30 05:30:59;;;;;;;9.33;7.30;;;10.70;95.20;;;;;;5073801;28;20234;-66
2021/04/30 05:33:26;;;;;;;8.70;7.80;;;10.70;94.40;;;;;;5073638;28;20694;-66
2021/04/30 05:35:52;;;;;;;7.90;7.20;;;10.70;94.10;;;;;;5073038;28;20209;-66
2021/04/30 05:38:18;;;;;;;7.90;7.10;;;10.80;93.80;;;;;;5073007;28;20229;-65
2021/04/30 05:40:46;;;;;;;8.43;7.50;;;10.70;94.00;;;;;;5072958;28;20687;-65
2021/04/30 05:43:12;;;;;;;9.03;7.53;;;10.80;93.90;;;;;;5072272;28;20225;-65
2021/04/30 05:45:40;;;;;;;8.57;6.83;;;10.80;93.60;;;;;;5072049;28;20355;-66
2021/04/30 05:48:07;;;;;;;8.40;6.80;;;10.90;93.80;;;;;;5072218;28;20228;-65
2021/04/30 05:50:33;;;;;;;7.50;6.80;;;10.80;93.40;;;;;;5072440;28;20208;-66
2021/04/30 05:52:59;;;;;;;7.67;6.97;;;10.80;93.40;;;;;;5072470;28;20215;-65
2021/04/30 05:55:25;;;;;;;9.20;7.50;;;10.90;93.20;;;;;;5072123;28;20208;-65
2021/04/30 05:57:52;;;;;;;7.90;7.10;;;11.20;93.00;;;;;;5072253;28;20331;-65
2021/04/30 06:00:19;;;;;;;8.77;7.13;;;11.40;92.30;;;;;;5072421;28;20699;-65
2021/04/30 06:02:46;;;;;;;8.33;7.07;;;11.50;91.70;;;;;;5072254;28;20244;-65
2021/04/30 06:05:13;;;;;;;9.90;7.03;;;11.70;91.30;;;;;;5071680;28;20205;-65
2021/04/30 06:07:39;;;;;;;10.13;7.83;;;11.80;91.60;;;;;;5071598;28;20228;-65
2021/04/30 06:10:06;;;;;;;12.13;8.53;;;12.00;91.40;;;;;;5071869;28;20205;-65
2021/04/30 06:12:33;;;;;;;9.20;6.97;;;12.10;90.30;;;;;;5071466;28;20266;-65
2021/04/30 06:15:00;;;;;;;8.30;5.63;;;12.00;90.20;;;;;;5071828;28;20838;-65
2021/04/30 06:17:27;;;;;;;6.80;6.10;;;12.00;90.10;;;;;;5072044;28;20692;-65
2021/04/30 06:19:53;;;;;;;6.40;5.67;;;12.00;89.80;;;;;;5072299;28;20205;-64
2021/04/30 06:22:19;;;;;;;7.10;6.40;;;12.10;90.10;;;;;;5072818;28;20209;-65
2021/04/30 06:24:46;;;;;;;8.60;6.67;;;12.30;90.20;;;;;;5072718;28;20271;-65
2021/04/30 06:27:12;;;;;;;10.07;7.10;;;12.40;90.10;;;;;;5072544;28;20208;-65
2021/04/30 06:29:38;;;;;;;8.70;6.60;;;12.70;89.50;;;;;;5072747;28;20569;-62
2021/04/30 06:32:06;;;;;;;8.27;6.77;;;12.90;88.30;;;;;;5072959;28;20254;-65
2021/04/30 06:34:32;;;;;;;8.47;6.50;;;12.80;88.70;;;;;;5072365;28;20197;-66
2021/04/30 06:36:59;;;;;;;8.80;6.47;;;12.80;88.40;;;;;;5072832;28;20205;-64
2021/04/30 06:39:25;;;;;;;7.85;7.05;;;12.60;89.20;;;;;;5070293;28;20445;-60
2021/04/30 06:41:52;;;;;;;7.30;6.53;;;12.50;89.80;;;;;;5071095;28;20220;-62
2021/04/30 06:44:18;;;;;;;7.57;6.77;;;12.60;89.80;;;;;;5071013;28;20224;-66
2021/04/30 06:46:45;;;;;;;7.80;6.00;;;12.80;90.00;;;;;;5076354;28;20255;-64
2021/04/30 06:49:12;;;;;;;7.40;6.17;;;12.80;88.70;;;;;;5076677;28;20233;-64
2021/04/30 06:51:38;;;;;;;7.57;6.40;;;12.90;88.30;;;;;;5076878;28;20615;-64
2021/04/30 06:54:05;;;;;;;9.27;6.77;;;13.10;87.60;;;;;;5076179;28;20200;-64
2021/04/30 06:56:32;;;;;;;7.17;5.53;;;13.10;87.10;;;;;;5074126;28;20212;-64
2021/04/30 06:58:59;;;;;;;6.90;6.00;;;12.80;88.20;;;;;;5073689;28;20275;-64
2021/04/30 07:01:25;;;;;;;6.77;6.03;;;12.40;88.40;;;;;;5076695;28;20231;-64
2021/04/30 07:03:51;;;;;;;7.87;6.40;;;12.30;89.30;;;;;;5075581;28;20228;-64
2021/04/30 07:06:19;;;;;;;6.87;6.17;;;12.20;89.40;;;;;;5075348;28;20668;-64
2021/04/30 07:08:46;;;;;;;8.53;6.13;;;12.20;89.40;;;;;;5075504;28;20772;-63
2021/04/30 07:11:13;;;;;;;6.77;6.07;;;12.10;89.90;;;;;;5076642;28;20209;-64
2021/04/30 07:13:39;;;;;;;6.60;5.90;;;12.00;89.10;;;;;;5074791;28;20208;-63
2021/04/30 07:16:07;;;;;;;6.93;6.23;;;12.10;88.70;;;;;;5070684;28;20263;-63
2021/04/30 07:18:33;;;;;;;8.90;7.47;;;12.20;88.40;;;;;;5070304;28;20437;-64
2021/04/30 07:20:59;;;;;;;6.40;5.80;;;12.20;88.20;;;;;;5070798;28;20338;-61
2021/04/30 07:23:28;;;;;;;6.90;6.20;;;12.30;87.90;;;;;;5070002;28;20457;-62
2021/04/30 07:25:54;;;;;;;6.40;5.70;;;12.30;88.20;;;;;;5070707;28;20212;-60
2021/04/30 07:28:20;;;;;;;6.73;5.83;;;12.20;88.00;;;;;;5070678;28;20622;-62
2021/04/30 07:30:47;;;;;;;6.80;6.10;;;12.00;88.30;;;;;;5073671;28;20213;-62
2021/04/30 07:33:13;;;;;;;7.73;5.73;;;12.00;89.00;;;;;;5074550;28;20200;-62
2021/04/30 07:35:40;;;;;;;7.37;6.27;;;12.00;89.20;;;;;;5073851;28;20209;-62
2021/04/30 07:38:07;;;;;;;8.00;6.40;;;11.90;90.10;;;;;;5073884;28;20229;-62
2021/04/30 07:40:35;;;;;;;6.50;5.60;;;11.90;90.00;;;;;;5074083;28;20296;-62
2021/04/30 07:43:01;;;;;;;10.40;6.57;;;11.90;90.00;;;;;;5073689;28;20227;-62
2021/04/30 07:45:28;;;;;;;7.17;6.10;;;11.90;90.30;;;;;;5073849;28;20205;-61
2021/04/30 07:47:54;;;;;;;6.33;5.73;;;12.00;90.10;;;;;;5073642;28;20224;-62
2021/04/30 07:50:20;;;;;;;7.37;6.27;;;12.10;90.20;;;;;;5073819;28;20201;-62
2021/04/30 07:52:46;;;;;;;6.67;5.77;;;12.10;90.30;;;;;;5074129;28;20205;-62
2021/04/30 07:55:13;;;;;;;8.13;6.13;;;12.20;90.30;;;;;;5073849;28;20205;-62
2021/04/30 07:57:40;;;;;;;8.07;5.73;;;12.20;90.20;;;;;;5074086;28;20236;-62
2021/04/30 08:00:07;;;;;;;6.50;5.73;;;12.20;89.80;;;;;;5074287;28;20212;-62
2021/04/30 08:02:34;;;;;;;7.00;6.23;;;12.10;89.30;;;;;;5073869;28;20558;-62
2021/04/30 08:05:00;;;;;;;8.07;6.13;;;12.00;89.60;;;;;;5073307;28;20232;-62
2021/04/30 08:07:27;;;;;;;6.03;5.40;;;12.00;89.20;;;;;;5073605;28;20668;-62
2021/04/30 08:09:55;;;;;;;6.50;5.80;;;12.10;89.30;;;;;;5073573;28;20212;-62
2021/04/30 08:12:22;;;;;;;6.50;5.90;;;12.20;88.10;;;;;;5073519;28;20208;-62
2021/04/30 08:14:49;;;;;;;9.67;6.17;;;12.40;86.90;;;;;;5073271;28;20623;-62
2021/04/30 08:17:16;;;;;;;7.50;5.90;;;12.40;86.20;;;;;;5073085;28;20212;-62
2021/04/30 08:19:42;;;;;;;7.10;6.07;;;12.30;85.90;;;;;;5072765;28;20216;-62
2021/04/30 08:22:09;;;;;;;8.53;5.60;;;12.30;86.10;;;;;;5073238;28;20205;-62
2021/04/30 08:24:35;;;;;;;7.13;5.97;;;12.40;86.50;;;;;;5073110;28;20224;-62
2021/04/30 08:27:02;;;;;;;6.57;5.60;;;12.40;86.00;;;;;;5073106;28;20217;-62
2021/04/30 08:29:28;;;;;;;7.60;6.57;;;12.50;85.50;;;;;;5073145;28;20229;-63
2021/04/30 08:31:55;;;;;;;7.50;6.63;;;12.70;85.80;;;;;;5073022;28;20204;-63
2021/04/30 08:34:22;;;;;;;6.47;5.43;;;12.60;87.10;;;;;;5072754;28;20228;-63
2021/04/30 08:36:48;;;;;;;7.10;6.17;;;12.60;87.20;;;;;;5073257;28;20211;-63
2021/04/30 08:39:14;;;;;;;8.80;6.07;;;12.60;87.10;;;;;;5072947;28;20712;-62
2021/04/30 08:41:41;;;;;;;7.60;6.07;;;12.50;87.20;;;;;;5072394;28;20209;-62
2021/04/30 08:44:08;;;;;;;8.07;5.90;;;12.50;86.50;;;;;;5073052;28;20227;-62
2021/04/30 08:46:35;;;;;;;8.40;6.07;;;12.40;87.50;;;;;;5072869;28;20665;-63
2021/04/30 08:49:04;;;;;;;6.97;6.23;;;12.30;87.90;;;;;;5072906;28;20256;-62
2021/04/30 08:51:30;;;;;;;8.23;6.27;;;12.20;88.70;;;;;;5072803;28;20254;-62
2021/04/30 08:53:57;;;;;;;8.87;6.47;;;12.20;88.90;;;;;;5072569;28;20205;-62
2021/04/30 08:56:23;;;;;;;7.97;6.27;;;12.20;90.00;;;;;;5072595;28;20244;-62
2021/04/30 08:58:50;;;;;;;8.63;6.50;;;12.30;89.00;;;;;;5072429;28;20227;-62
2021/04/30 09:01:17;;;;;;;7.50;6.47;;;12.20;89.40;;;;;;5072584;28;20599;-62
2021/04/30 09:03:43;;;;;;;8.23;6.73;;;12.20;89.40;;;;;;5072681;28;20224;-62
2021/04/30 09:06:18;;;;;;;8.50;7.43;;;12.30;89.50;;;;;;5072918;28;20326;-62
2021/04/30 09:08:46;;;;;;;30.60;21.93;;;12.30;89.50;;;;;;5072606;28;20352;-62
2021/04/30 09:11:31;;;;;;;9.07;8.13;;;12.40;90.10;;;;;;5072780;28;20240;-62
2021/04/30 09:14:30;;;;;;;9.50;8.50;;;12.60;89.30;;;;;;5072291;28;20213;-63
2021/04/30 09:17:01;;;;;;;12.77;8.83;;;12.70;88.20;;;;;;5072592;28;20209;-62
2021/04/30 09:19:34;;;;;;;9.40;8.07;;;12.70;87.70;;;;;;5125709;22;20298;-60
2021/04/30 09:22:03;;;;;;;8.63;7.73;;;12.60;88.60;;;;;;5112712;28;20200;-62
2021/04/30 09:24:29;;;;;;;9.57;8.00;;;12.50;89.40;;;;;;5112460;28;20231;-63
2021/04/30 09:26:57;;;;;;;10.50;8.40;;;12.60;89.80;;;;;;5112526;28;20203;-62
2021/04/30 09:29:23;;;;;;;9.30;8.40;;;12.70;89.20;;;;;;5096007;28;20324;-62
2021/04/30 09:31:50;;;;;;;9.77;8.43;;;12.70;88.10;;;;;;5092058;28;20299;-61
2021/04/30 09:34:19;;;;;;;11.73;8.07;;;12.90;87.90;;;;;;5091652;28;20322;-62
2021/04/30 09:37:04;;;;;;;9.80;7.93;;;12.90;87.60;;;;;;5091840;28;20262;-63
2021/04/30 09:39:31;;;;;;;10.53;8.00;;;12.60;88.20;;;;;;5091974;28;20234;-62
2021/04/30 09:42:08;;;;;;;9.57;8.33;;;12.50;88.70;;;;;;5091917;28;20200;-62
2021/04/30 09:44:37;;;;;;;7.97;7.17;;;12.60;89.00;;;;;;5091619;28;20599;-61
2021/04/30 09:47:23;;;;;;;9.27;7.17;;;12.80;89.00;;;;;;5091688;28;20209;-62
2021/04/30 09:49:52;;;;;;;8.60;7.27;;;12.90;88.20;;;;;;5091454;28;20235;-63
2021/04/30 09:52:20;;;;;;;8.00;7.20;;;12.90;88.00;;;;;;5091567;28;20204;-64
2021/04/30 09:54:47;;;;;;;9.83;7.80;;;13.00;88.10;;;;;;5091098;28;20686;-64
2021/04/30 09:57:16;;;;;;;10.40;8.73;;;13.00;87.10;;;;;;5091660;28;20627;-65
2021/04/30 09:59:44;;;;;;;11.30;8.33;;;12.90;87.70;;;;;;5091276;28;20224;-64
2021/04/30 10:02:13;;;;;;;9.70;8.70;;;12.90;87.30;;;;;;5091535;28;20656;-65
2021/04/30 10:04:43;;;;;;;9.60;8.37;;;12.90;87.10;;;;;;5091501;28;20915;-66
2021/04/30 10:07:10;;;;;;;12.13;8.90;;;13.00;86.90;;;;;;5091204;28;20581;-66
2021/04/30 10:09:37;;;;;;;11.33;8.97;;;13.00;86.20;;;;;;5091462;28;20228;-65
2021/04/30 10:12:21;;;;;;;10.30;8.90;;;12.90;86.10;;;;;;5091322;28;20208;-65
2021/04/30 10:14:47;;;;;;;12.27;8.87;;;12.90;86.50;;;;;;5091283;28;20245;-65
2021/04/30 10:17:14;;;;;;;10.23;9.03;;;12.80;86.40;;;;;;5091393;28;20208;-66
2021/04/30 10:19:41;;;;;;;12.07;9.60;;;12.60;86.40;;;;;;5091009;28;20263;-66
2021/04/30 10:22:12;;;;;;;10.90;9.80;;;12.30;87.30;;;;;;5091515;28;20208;-64
2021/04/30 10:24:43;;;;;;;11.00;9.40;;;12.30;87.60;;;;;;5091029;28;20238;-65
2021/04/30 10:27:12;;;;;;;11.13;9.43;;;12.30;87.60;;;;;;5091490;28;20212;-65
2021/04/30 10:29:39;;;;;;;10.30;9.20;;;12.40;87.70;;;;;;5091267;28;20224;-65
2021/04/30 10:32:06;;;;;;;11.70;9.37;;;12.50;87.30;;;;;;5091548;28;20207;-65
2021/04/30 10:34:39;;;;;;;10.63;9.57;;;12.50;87.50;;;;;;5091153;28;20204;-67
2021/04/30 10:37:06;;;;;;;12.90;9.23;;;12.70;87.70;;;;;;5091378;28;20608;-65
2021/04/30 10:39:36;;;;;;;11.53;9.77;;;12.80;86.50;;;;;;5091690;28;20251;-65
2021/04/30 10:42:09;;;;;;;10.63;9.33;;;12.80;86.70;;;;;;5091353;28;20231;-65
2021/04/30 10:44:40;;;;;;;12.30;9.40;;;12.80;86.70;;;;;;5090875;28;20238;-65
2021/04/30 10:47:24;;;;;;;11.90;9.77;;;12.70;86.80;;;;;;5091252;28;20258;-66
2021/04/30 10:50:11;;;;;;;11.40;8.87;;;12.60;88.00;;;;;;5088070;28;20676;-65
2021/04/30 10:52:37;;;;;;;11.90;9.37;;;12.60;87.80;;;;;;5091031;28;20680;-63
2021/04/30 10:55:05;;;;;;;11.90;9.90;;;12.60;88.70;;;;;;5090953;28;20678;-64
2021/04/30 10:57:51;;;;;;;11.43;9.23;;;12.60;89.40;;;;;;5090895;28;20208;-63
2021/04/30 11:00:19;;;;;;;11.53;9.87;;;12.70;89.80;;;;;;5091411;28;20215;-63
2021/04/30 11:02:45;;;;;;;11.00;9.80;;;12.80;90.00;;;;;;5091424;28;20253;-62
2021/04/30 11:05:15;;;;;;;12.37;11.07;;;12.70;91.10;;;;;;5093050;28;20228;-62
2021/04/30 11:07:45;;;;;;;12.97;10.80;;;12.60;91.90;;;;;;5095117;28;20208;-63
2021/04/30 11:10:39;;;;;;;13.47;12.00;;;12.50;92.20;;;;;;5094898;28;20274;-62
2021/04/30 11:13:15;;;;;;;13.23;11.73;;;12.50;93.70;;;;;;5094825;28;20201;-61
2021/04/30 11:15:56;;;;;;;14.03;11.67;;;12.40;93.20;;;;;;5094761;28;20207;-59
2021/04/30 11:18:24;;;;;;;13.60;11.77;;;12.20;94.50;;;;;;5094295;28;20718;-63
2021/04/30 11:20:59;;;;;;;15.60;12.30;;;12.20;94.70;;;;;;5094562;28;20253;-62
2021/04/30 11:23:26;;;;;;;13.83;12.43;;;12.10;94.40;;;;;;5094708;28;20265;-61
2021/04/30 11:26:12;;;;;;;13.60;12.13;;;11.60;97.30;;;;;;5094810;28;20204;-65
2021/04/30 11:29:09;;;;;;;15.57;13.20;;;11.20;98.80;;;;;;5094675;28;20220;-61
2021/04/30 11:31:36;;;;;;;20.43;14.87;;;10.90;99.90;;;;;;5096808;28;20297;-62
2021/04/30 11:34:22;;;;;;;18.87;14.90;;;10.60;99.90;;;;;;5096388;28;20204;-59
2021/04/30 11:36:58;;;;;;;18.57;14.63;;;10.30;99.90;;;;;;5094843;28;20253;-60
2021/04/30 11:39:30;;;;;;;17.43;14.90;;;10.10;99.90;;;;;;5094110;28;20224;-62
2021/04/30 11:41:58;;;;;;;20.90;15.93;;;9.90;99.90;;;;;;5094845;28;20687;-63
2021/04/30 11:44:25;;;;;;;18.43;15.73;;;10.00;99.90;;;;;;5094238;28;20622;-61
2021/04/30 11:46:56;;;;;;;19.47;16.10;;;10.00;99.90;;;;;;5094372;28;20509;-63
2021/04/30 11:49:23;;;;;;;18.70;15.37;;;10.10;99.90;;;;;;5075820;28;20757;-60
2021/04/30 11:51:49;;;;;;;16.73;14.93;;;10.10;99.90;;;;;;5073154;28;20213;-63
2021/04/30 11:54:19;;;;;;;17.17;14.50;;;10.10;99.90;;;;;;5073349;28;20209;-61
2021/04/30 11:56:46;;;;;;;16.80;14.47;;;10.10;99.90;;;;;;5074804;28;20201;-62
2021/04/30 11:59:19;;;;;;;17.33;14.13;;;10.00;99.90;;;;;;5074380;28;20229;-60
2021/04/30 12:01:54;;;;;;;14.40;12.90;;;10.10;99.90;;;;;;5073740;28;20205;-62
2021/04/30 12:04:47;;;;;;;17.90;14.53;;;10.00;99.90;;;;;;5074734;28;20255;-60
2021/04/30 12:07:14;;;;;;;17.27;13.00;;;10.00;99.90;;;;;;5075040;28;20201;-60
2021/04/30 12:09:41;;;;;;;15.13;12.70;;;9.80;99.90;;;;;;5074252;28;20271;-64
2021/04/30 12:12:19;;;;;;;15.07;12.03;;;9.90;99.90;;;;;;5074800;28;20212;-62
2021/04/30 12:14:52;;;;;;;14.07;12.50;;;9.80;99.90;;;;;;5073015;28;20300;-61
2021/04/30 12:17:27;;;;;;;15.07;12.80;;;9.90;99.90;;;;;;5072385;28;20464;-63
2021/04/30 12:20:09;;;;;;;16.83;12.80;;;10.10;99.90;;;;;;5073186;28;20765;-60
2021/04/30 12:22:43;;;;;;;14.93;11.63;;;10.00;99.90;;;;;;5073261;28;20209;-61
2021/04/30 12:25:27;;;;;;;16.47;12.33;;;9.90;99.90;;;;;;5072852;28;20640;-61
2021/04/30 12:27:55;;;;;;;13.97;12.47;;;9.70;99.90;;;;;;5073082;28;20225;-61
2021/04/30 12:30:29;;;;;;;13.87;12.43;;;9.80;99.90;;;;;;5072899;28;20208;-60
2021/04/30 12:32:57;;;;;;;13.97;11.70;;;9.90;99.90;;;;;;5073078;28;20236;-61
2021/04/30 12:35:24;;;;;;;12.80;10.97;;;9.90;99.90;;;;;;5073462;28;20560;-60
2021/04/30 12:37:50;;;;;;;13.10;11.03;;;9.70;99.90;;;;;;5073259;28;20221;-60
2021/04/30 12:40:16;;;;;;;13.17;11.23;;;9.60;99.90;;;;;;5073279;28;20316;-60
2021/04/30 12:42:50;;;;;;;14.63;11.30;;;9.50;99.90;;;;;;5072721;28;20594;-62
2021/04/30 12:45:17;;;;;;;14.63;11.87;;;9.50;99.90;;;;;;5072808;28;20221;-61
2021/04/30 12:47:45;;;;;;;14.50;11.03;;;9.70;99.90;;;;;;5072690;28;20583;-65
2021/04/30 12:50:14;;;;;;;16.27;12.53;;;9.90;99.90;;;;;;5072926;28;20224;-62